sensor_id;sensor_type;location;lat;lon;timestamp;P1;P2;P0
86021;PMS7003;76597;42.990;21.932;2024-02-15T00:00:21;90.50;68.25;43.75
86021;PMS7003;76597;42.990;21.932;2024-02-15T00:02:47;100.00;75.25;47.50
86021;PMS7003;76597;42.990;21.932;2024-02-15T00:05:14;124.75;97.75;53.00
86021;PMS7003;76597;42.990;21.932;2024-02-15T00:07:42;120.50;102.75;57.25
86021;PMS7003;76597;42.990;21.932;2024-02-15T00:10:09;143.50;114.00;63.25
86021;PMS7003;76597;42.990;21.932;2024-02-15T00:12:35;156.50;120.50;70.25
86021;PMS7003;76597;42.990;21.932;2024-02-15T00:15:01;169.00;131.50;76.25
86021;PMS7003;76597;42.990;21.932;2024-02-15T00:17:30;173.50;138.50;78.00
86021;PMS7003;76597;42.990;21.932;2024-02-15T00:19:55;164.00;128.75;72.75
86021;PMS7003;76597;42.990;21.932;2024-02-15T00:22:21;175.00;136.00;76.00
86021;PMS7003;76597;42.990;21.932;2024-02-15T00:24:47;142.50;117.75;66.00
86021;PMS7003;76597;42.990;21.932;2024-02-15T00:27:15;147.25;121.50;71.25
86021;PMS7003;76597;42.990;21.932;2024-02-15T00:29:41;136.00;115.50;73.50
86021;PMS7003;76597;42.990;21.932;2024-02-15T00:32:08;87.75;66.75;43.50
86021;PMS7003;76597;42.990;21.932;2024-02-15T00:34:38;96.75;70.25;44.25
86021;PMS7003;76597;42.990;21.932;2024-02-15T00:37:04;100.00;74.25;44.25
86021;PMS7003;76597;42.990;21.932;2024-02-15T00:39:30;104.00;85.25;49.50
86021;PMS7003;76597;42.990;21.932;2024-02-15T00:41:56;107.00;82.75;52.25
86021;PMS7003;76597;42.990;21.932;2024-02-15T00:44:23;109.75;91.00;52.25
86021;PMS7003;76597;42.990;21.932;2024-02-15T00:46:48;106.50;80.75;49.25
86021;PMS7003;76597;42.990;21.932;2024-02-15T00:49:14;104.25;79.00;49.25
86021;PMS7003;76597;42.990;21.932;2024-02-15T00:51:40;120.25;92.00;50.00
86021;PMS7003;76597;42.990;21.932;2024-02-15T00:54:06;115.00;88.50;50.75
86021;PMS7003;76597;42.990;21.932;2024-02-15T00:56:31;108.75;86.25;53.25
86021;PMS7003;76597;42.990;21.932;2024-02-15T00:59:00;110.75;85.50;51.00
86021;PMS7003;76597;42.990;21.932;2024-02-15T01:01:26;98.25;78.25;49.75
86021;PMS7003;76597;42.990;21.932;2024-02-15T01:03:52;104.00;78.00;49.50
86021;PMS7003;76597;42.990;21.932;2024-02-15T01:06:17;106.50;85.75;52.25
86021;PMS7003;76597;42.990;21.932;2024-02-15T01:08:44;104.50;75.75;45.75
86021;PMS7003;76597;42.990;21.932;2024-02-15T01:11:09;108.75;83.25;50.00
86021;PMS7003;76597;42.990;21.932;2024-02-15T01:13:35;105.00;77.25;49.75
86021;PMS7003;76597;42.990;21.932;2024-02-15T01:16:00;105.75;77.75;47.75
86021;PMS7003;76597;42.990;21.932;2024-02-15T01:18:28;99.00;73.00;45.50
86021;PMS7003;76597;42.990;21.932;2024-02-15T01:20:55;100.75;76.50;46.75
86021;PMS7003;76597;42.990;21.932;2024-02-15T01:23:21;99.75;76.75;46.75
86021;PMS7003;76597;42.990;21.932;2024-02-15T01:25:48;112.50;84.00;53.50
86021;PMS7003;76597;42.990;21.932;2024-02-15T01:28:14;153.75;123.50;66.00
86021;PMS7003;76597;42.990;21.932;2024-02-15T01:30:39;113.50;93.75;55.50
86021;PMS7003;76597;42.990;21.932;2024-02-15T01:33:05;147.00;121.75;67.75
86021;PMS7003;76597;42.990;21.932;2024-02-15T01:35:31;141.25;118.50;69.25
86021;PMS7003;76597;42.990;21.932;2024-02-15T01:37:57;147.50;125.25;73.25
86021;PMS7003;76597;42.990;21.932;2024-02-15T01:40:24;144.75;129.00;78.00
86021;PMS7003;76597;42.990;21.932;2024-02-15T01:42:50;151.00;122.50;62.75
86021;PMS7003;76597;42.990;21.932;2024-02-15T01:45:16;113.25;90.75;50.50
86021;PMS7003;76597;42.990;21.932;2024-02-15T01:47:42;106.50;81.75;49.25
86021;PMS7003;76597;42.990;21.932;2024-02-15T01:50:12;112.50;95.50;54.50
86021;PMS7003;76597;42.990;21.932;2024-02-15T01:52:39;112.25;89.50;53.25
86021;PMS7003;76597;42.990;21.932;2024-02-15T01:55:05;112.50;92.00;52.50
86021;PMS7003;76597;42.990;21.932;2024-02-15T01:57:36;103.00;81.75;46.25
86021;PMS7003;76597;42.990;21.932;2024-02-15T02:00:06;118.00;99.75;62.50
86021;PMS7003;76597;42.990;21.932;2024-02-15T02:02:34;104.75;82.00;50.25
86021;PMS7003;76597;42.990;21.932;2024-02-15T02:05:01;102.50;77.50;48.75
86021;PMS7003;76597;42.990;21.932;2024-02-15T02:07:27;108.50;78.50;48.75
86021;PMS7003;76597;42.990;21.932;2024-02-15T02:09:53;105.50;77.75;48.50
86021;PMS7003;76597;42.990;21.932;2024-02-15T02:12:18;97.50;71.50;45.25
86021;PMS7003;76597;42.990;21.932;2024-02-15T02:14:44;93.25;71.25;44.25
86021;PMS7003;76597;42.990;21.932;2024-02-15T02:17:10;93.00;68.75;41.75
86021;PMS7003;76597;42.990;21.932;2024-02-15T02:19:38;88.50;66.50;41.75
86021;PMS7003;76597;42.990;21.932;2024-02-15T02:22:04;68.50;55.50;31.00
86021;PMS7003;76597;42.990;21.932;2024-02-15T02:24:31;78.50;58.75;35.75
86021;PMS7003;76597;42.990;21.932;2024-02-15T02:27:03;76.75;58.75;39.50
86021;PMS7003;76597;42.990;21.932;2024-02-15T02:29:30;54.25;48.25;28.75
86021;PMS7003;76597;42.990;21.932;2024-02-15T02:31:56;58.00;47.25;31.25
86021;PMS7003;76597;42.990;21.932;2024-02-15T02:34:22;70.00;53.50;33.00
86021;PMS7003;76597;42.990;21.932;2024-02-15T02:36:48;66.75;51.75;31.75
86021;PMS7003;76597;42.990;21.932;2024-02-15T02:39:15;50.25;41.25;27.25
86021;PMS7003;76597;42.990;21.932;2024-02-15T02:41:41;49.75;42.50;29.50
86021;PMS7003;76597;42.990;21.932;2024-02-15T02:44:07;77.75;58.00;34.50
86021;PMS7003;76597;42.990;21.932;2024-02-15T02:46:33;66.50;52.75;32.25
86021;PMS7003;76597;42.990;21.932;2024-02-15T02:48:59;70.75;55.75;32.25
86021;PMS7003;76597;42.990;21.932;2024-02-15T02:51:24;50.25;41.50;27.25
86021;PMS7003;76597;42.990;21.932;2024-02-15T02:53:50;50.00;42.75;28.00
86021;PMS7003;76597;42.990;21.932;2024-02-15T02:56:16;61.75;49.00;33.00
86021;PMS7003;76597;42.990;21.932;2024-02-15T02:58:43;57.25;47.50;30.25
86021;PMS7003;76597;42.990;21.932;2024-02-15T03:01:12;65.00;50.00;30.25
86021;PMS7003;76597;42.990;21.932;2024-02-15T03:03:38;50.00;45.75;30.75
86021;PMS7003;76597;42.990;21.932;2024-02-15T03:06:04;66.50;51.00;31.00
86021;PMS7003;76597;42.990;21.932;2024-02-15T03:08:31;71.50;54.25;33.75
86021;PMS7003;76597;42.990;21.932;2024-02-15T03:10:56;72.50;54.25;36.00
86021;PMS7003;76597;42.990;21.932;2024-02-15T03:13:22;66.00;54.00;34.75
86021;PMS7003;76597;42.990;21.932;2024-02-15T03:15:48;45.00;43.00;27.00
86021;PMS7003;76597;42.990;21.932;2024-02-15T03:18:16;63.50;48.00;31.75
86021;PMS7003;76597;42.990;21.932;2024-02-15T03:20:42;63.00;50.75;30.50
86021;PMS7003;76597;42.990;21.932;2024-02-15T03:23:08;59.00;48.00;29.25
86021;PMS7003;76597;42.990;21.932;2024-02-15T03:25:34;56.25;50.25;33.00
86021;PMS7003;76597;42.990;21.932;2024-02-15T03:28:00;50.75;41.00;28.25
86021;PMS7003;76597;42.990;21.932;2024-02-15T03:30:30;64.25;49.50;31.75
86021;PMS7003;76597;42.990;21.932;2024-02-15T03:32:57;70.25;50.75;32.75
86021;PMS7003;76597;42.990;21.932;2024-02-15T03:35:23;54.00;45.75;26.75
86021;PMS7003;76597;42.990;21.932;2024-02-15T03:37:50;63.25;50.50;33.50
86021;PMS7003;76597;42.990;21.932;2024-02-15T03:40:16;68.25;54.75;35.50
86021;PMS7003;76597;42.990;21.932;2024-02-15T03:42:43;70.75;54.25;33.75
86021;PMS7003;76597;42.990;21.932;2024-02-15T03:45:09;63.50;48.75;30.00
86021;PMS7003;76597;42.990;21.932;2024-02-15T03:47:36;73.50;57.00;33.75
86021;PMS7003;76597;42.990;21.932;2024-02-15T03:50:05;66.00;49.50;32.25
86021;PMS7003;76597;42.990;21.932;2024-02-15T03:52:31;54.50;43.25;28.50
86021;PMS7003;76597;42.990;21.932;2024-02-15T03:54:57;61.50;48.75;30.25
86021;PMS7003;76597;42.990;21.932;2024-02-15T03:57:27;52.25;45.25;26.25
86021;PMS7003;76597;42.990;21.932;2024-02-15T03:59:53;48.75;42.25;26.25
86021;PMS7003;76597;42.990;21.932;2024-02-15T04:02:22;48.00;43.00;28.00
86021;PMS7003;76597;42.990;21.932;2024-02-15T04:04:49;42.00;40.50;23.75
86021;PMS7003;76597;42.990;21.932;2024-02-15T04:07:18;50.75;44.00;22.50
86021;PMS7003;76597;42.990;21.932;2024-02-15T04:09:44;41.00;31.00;19.00
86021;PMS7003;76597;42.990;21.932;2024-02-15T04:12:12;44.75;38.75;23.50
86021;PMS7003;76597;42.990;21.932;2024-02-15T04:14:39;34.75;28.00;19.25
86021;PMS7003;76597;42.990;21.932;2024-02-15T04:17:10;43.00;34.75;20.00
86021;PMS7003;76597;42.990;21.932;2024-02-15T04:19:36;36.75;31.00;20.75
86021;PMS7003;76597;42.990;21.932;2024-02-15T04:22:02;34.75;24.50;15.75
86021;PMS7003;76597;42.990;21.932;2024-02-15T04:24:33;38.75;32.50;22.25
86021;PMS7003;76597;42.990;21.932;2024-02-15T04:26:59;48.25;43.25;24.50
86021;PMS7003;76597;42.990;21.932;2024-02-15T04:29:25;45.00;42.00;28.00
86021;PMS7003;76597;42.990;21.932;2024-02-15T04:31:51;102.25;78.00;49.75
86021;PMS7003;76597;42.990;21.932;2024-02-15T04:34:19;99.25;75.50;46.75
86021;PMS7003;76597;42.990;21.932;2024-02-15T04:36:46;41.50;33.00;31.00
86021;PMS7003;76597;42.990;21.932;2024-02-15T04:39:18;91.50;72.00;43.25
86021;PMS7003;76597;42.990;21.932;2024-02-15T04:41:52;98.50;73.50;46.00
86021;PMS7003;76597;42.990;21.932;2024-02-15T04:44:18;105.00;73.50;44.00
86021;PMS7003;76597;42.990;21.932;2024-02-15T04:46:52;100.50;74.75;45.75
86021;PMS7003;76597;42.990;21.932;2024-02-15T04:49:18;91.25;67.75;42.75
86021;PMS7003;76597;42.990;21.932;2024-02-15T04:51:44;99.00;69.00;42.50
86021;PMS7003;76597;42.990;21.932;2024-02-15T04:54:10;93.25;68.75;42.50
86021;PMS7003;76597;42.990;21.932;2024-02-15T04:56:39;92.25;69.50;42.00
86021;PMS7003;76597;42.990;21.932;2024-02-15T04:59:14;93.25;69.25;44.00
86021;PMS7003;76597;42.990;21.932;2024-02-15T05:01:43;87.75;60.25;37.00
86021;PMS7003;76597;42.990;21.932;2024-02-15T05:04:09;85.25;63.50;42.00
86021;PMS7003;76597;42.990;21.932;2024-02-15T05:06:35;87.50;66.00;40.25
86021;PMS7003;76597;42.990;21.932;2024-02-15T05:09:02;59.50;50.75;32.00
86021;PMS7003;76597;42.990;21.932;2024-02-15T05:11:38;74.00;51.50;33.75
86021;PMS7003;76597;42.990;21.932;2024-02-15T05:14:11;75.75;53.75;33.00
86021;PMS7003;76597;42.990;21.932;2024-02-15T05:16:37;69.00;53.25;33.50
86021;PMS7003;76597;42.990;21.932;2024-02-15T05:19:10;63.75;48.25;29.50
86021;PMS7003;76597;42.990;21.932;2024-02-15T05:21:38;75.50;55.75;36.00
86021;PMS7003;76597;42.990;21.932;2024-02-15T05:24:05;97.00;74.00;46.00
86021;PMS7003;76597;42.990;21.932;2024-02-15T05:26:31;81.25;60.25;39.25
86021;PMS7003;76597;42.990;21.932;2024-02-15T05:28:57;82.50;56.75;34.50
86021;PMS7003;76597;42.990;21.932;2024-02-15T05:31:23;95.00;73.75;47.00
86021;PMS7003;76597;42.990;21.932;2024-02-15T05:33:51;103.25;71.75;43.00
86021;PMS7003;76597;42.990;21.932;2024-02-15T05:36:19;101.50;75.00;45.50
86021;PMS7003;76597;42.990;21.932;2024-02-15T05:38:52;118.00;91.25;52.00
86021;PMS7003;76597;42.990;21.932;2024-02-15T05:41:19;99.25;73.00;44.75
86021;PMS7003;76597;42.990;21.932;2024-02-15T05:43:46;105.00;77.50;48.75
86021;PMS7003;76597;42.990;21.932;2024-02-15T05:46:16;105.50;84.00;51.25
86021;PMS7003;76597;42.990;21.932;2024-02-15T05:48:45;105.25;77.75;49.00
86021;PMS7003;76597;42.990;21.932;2024-02-15T05:51:10;116.25;87.75;51.75
86021;PMS7003;76597;42.990;21.932;2024-02-15T05:53:36;119.75;96.50;52.00
86021;PMS7003;76597;42.990;21.932;2024-02-15T05:56:02;132.00;110.00;60.75
86021;PMS7003;76597;42.990;21.932;2024-02-15T05:58:34;112.75;92.25;55.00
86021;PMS7003;76597;42.990;21.932;2024-02-15T06:01:00;119.75;94.00;57.75
86021;PMS7003;76597;42.990;21.932;2024-02-15T06:03:30;115.50;92.50;51.75
86021;PMS7003;76597;42.990;21.932;2024-02-15T06:05:58;117.75;94.50;58.00
86021;PMS7003;76597;42.990;21.932;2024-02-15T06:08:31;67.00;43.25;0.00
86021;PMS7003;76597;42.990;21.932;2024-02-15T06:11:00;88.50;65.75;34.75
86021;PMS7003;76597;42.990;21.932;2024-02-15T06:13:26;110.50;78.50;50.00
86021;PMS7003;76597;42.990;21.932;2024-02-15T06:15:52;108.75;77.00;46.00
86021;PMS7003;76597;42.990;21.932;2024-02-15T06:18:19;115.00;88.25;52.25
86021;PMS7003;76597;42.990;21.932;2024-02-15T06:20:47;112.75;89.75;57.25
86021;PMS7003;76597;42.990;21.932;2024-02-15T06:23:15;114.50;91.25;57.00
86021;PMS7003;76597;42.990;21.932;2024-02-15T06:25:41;142.50;118.75;66.00
86021;PMS7003;76597;42.990;21.932;2024-02-15T06:28:07;137.75;115.00;70.50
86021;PMS7003;76597;42.990;21.932;2024-02-15T06:30:45;136.75;109.00;62.00
86021;PMS7003;76597;42.990;21.932;2024-02-15T06:33:29;141.75;115.00;71.25
86021;PMS7003;76597;42.990;21.932;2024-02-15T06:36:13;155.25;128.25;71.25
86021;PMS7003;76597;42.990;21.932;2024-02-15T06:38:57;134.25;122.50;74.25
86021;PMS7003;76597;42.990;21.932;2024-02-15T06:41:49;180.25;132.50;78.00
86021;PMS7003;76597;42.990;21.932;2024-02-15T06:44:14;197.25;152.25;91.00
86021;PMS7003;76597;42.990;21.932;2024-02-15T06:46:40;165.75;135.00;81.00
86021;PMS7003;76597;42.990;21.932;2024-02-15T06:49:06;183.00;158.00;100.25
86021;PMS7003;76597;42.990;21.932;2024-02-15T06:51:32;219.25;179.50;100.50
86021;PMS7003;76597;42.990;21.932;2024-02-15T06:53:57;247.50;211.00;117.00
86021;PMS7003;76597;42.990;21.932;2024-02-15T06:56:23;238.75;195.50;106.75
86021;PMS7003;76597;42.990;21.932;2024-02-15T06:58:50;256.25;204.00;112.25
86021;PMS7003;76597;42.990;21.932;2024-02-15T07:01:15;318.25;258.50;145.75
86021;PMS7003;76597;42.990;21.932;2024-02-15T07:03:44;371.25;288.00;157.50
86021;PMS7003;76597;42.990;21.932;2024-02-15T07:06:10;277.75;233.75;121.00
86021;PMS7003;76597;42.990;21.932;2024-02-15T07:08:38;286.50;242.25;136.25
86021;PMS7003;76597;42.990;21.932;2024-02-15T07:11:06;241.25;185.25;111.25
86021;PMS7003;76597;42.990;21.932;2024-02-15T07:13:35;210.25;177.75;108.50
86021;PMS7003;76597;42.990;21.932;2024-02-15T07:16:02;196.75;164.00;91.25
86021;PMS7003;76597;42.990;21.932;2024-02-15T07:18:29;198.50;163.25;92.25
86021;PMS7003;76597;42.990;21.932;2024-02-15T07:20:54;203.50;162.75;90.00
86021;PMS7003;76597;42.990;21.932;2024-02-15T07:23:22;212.00;169.00;96.75
86021;PMS7003;76597;42.990;21.932;2024-02-15T07:25:47;177.25;145.75;90.75
86021;PMS7003;76597;42.990;21.932;2024-02-15T07:28:14;161.50;139.25;79.75
86021;PMS7003;76597;42.990;21.932;2024-02-15T07:30:39;169.75;145.50;83.25
86021;PMS7003;76597;42.990;21.932;2024-02-15T07:33:05;114.75;88.00;50.50
86021;PMS7003;76597;42.990;21.932;2024-02-15T07:35:32;106.75;79.50;48.75
86021;PMS7003;76597;42.990;21.932;2024-02-15T07:37:58;114.75;93.00;58.50
86021;PMS7003;76597;42.990;21.932;2024-02-15T07:40:26;113.75;92.25;53.50
86021;PMS7003;76597;42.990;21.932;2024-02-15T07:42:56;124.00;108.50;59.25
86021;PMS7003;76597;42.990;21.932;2024-02-15T07:45:22;115.75;97.00;58.00
86021;PMS7003;76597;42.990;21.932;2024-02-15T07:47:48;134.00;105.00;58.00
86021;PMS7003;76597;42.990;21.932;2024-02-15T07:50:17;125.50;106.50;61.00
86021;PMS7003;76597;42.990;21.932;2024-02-15T07:52:47;113.50;88.25;52.00
86021;PMS7003;76597;42.990;21.932;2024-02-15T07:55:13;103.50;77.75;50.50
86021;PMS7003;76597;42.990;21.932;2024-02-15T07:57:39;106.25;76.00;42.00
86021;PMS7003;76597;42.990;21.932;2024-02-15T08:00:05;136.75;112.50;69.00
86021;PMS7003;76597;42.990;21.932;2024-02-15T08:02:36;139.00;112.75;61.00
86021;PMS7003;76597;42.990;21.932;2024-02-15T08:05:05;122.25;99.00;59.00
86021;PMS7003;76597;42.990;21.932;2024-02-15T08:07:36;117.50;87.75;53.25
86021;PMS7003;76597;42.990;21.932;2024-02-15T08:10:02;117.25;98.75;61.25
86021;PMS7003;76597;42.990;21.932;2024-02-15T08:12:29;112.75;97.50;52.75
86021;PMS7003;76597;42.990;21.932;2024-02-15T08:14:55;118.75;99.50;61.75
86021;PMS7003;76597;42.990;21.932;2024-02-15T08:17:21;145.00;123.50;73.00
86021;PMS7003;76597;42.990;21.932;2024-02-15T08:19:47;116.00;96.75;54.00
86021;PMS7003;76597;42.990;21.932;2024-02-15T08:22:12;119.75;98.25;54.50
86021;PMS7003;76597;42.990;21.932;2024-02-15T08:24:38;114.00;91.75;50.00
86021;PMS7003;76597;42.990;21.932;2024-02-15T08:27:03;122.00;107.25;66.00
86021;PMS7003;76597;42.990;21.932;2024-02-15T08:29:30;117.50;102.75;56.25
86021;PMS7003;76597;42.990;21.932;2024-02-15T08:31:55;111.00;92.25;56.00
86021;PMS7003;76597;42.990;21.932;2024-02-15T08:34:21;121.25;104.50;62.75
86021;PMS7003;76597;42.990;21.932;2024-02-15T08:36:46;107.75;83.25;51.00
86021;PMS7003;76597;42.990;21.932;2024-02-15T08:39:13;115.00;96.25;58.75
86021;PMS7003;76597;42.990;21.932;2024-02-15T08:41:41;119.50;103.50;61.25
86021;PMS7003;76597;42.990;21.932;2024-02-15T08:44:07;114.00;93.00;56.25
86021;PMS7003;76597;42.990;21.932;2024-02-15T08:46:40;114.50;92.00;54.25
86021;PMS7003;76597;42.990;21.932;2024-02-15T08:49:07;127.50;106.00;64.50
86021;PMS7003;76597;42.990;21.932;2024-02-15T08:51:32;121.50;106.75;59.00
86021;PMS7003;76597;42.990;21.932;2024-02-15T08:53:58;115.75;101.00;54.50
86021;PMS7003;76597;42.990;21.932;2024-02-15T08:56:25;116.00;94.50;57.75
86021;PMS7003;76597;42.990;21.932;2024-02-15T08:58:51;106.00;86.50;52.00
86021;PMS7003;76597;42.990;21.932;2024-02-15T09:01:17;117.75;96.00;58.00
86021;PMS7003;76597;42.990;21.932;2024-02-15T09:03:42;129.75;101.75;55.50
86021;PMS7003;76597;42.990;21.932;2024-02-15T09:06:10;128.25;103.25;57.00
86021;PMS7003;76597;42.990;21.932;2024-02-15T09:08:35;111.00;92.50;57.25
86021;PMS7003;76597;42.990;21.932;2024-02-15T09:11:01;145.75;118.25;66.75
86021;PMS7003;76597;42.990;21.932;2024-02-15T09:13:27;131.75;112.25;64.50
86021;PMS7003;76597;42.990;21.932;2024-02-15T09:15:52;123.50;105.50;61.75
86021;PMS7003;76597;42.990;21.932;2024-02-15T09:18:18;112.25;99.00;57.75
86021;PMS7003;76597;42.990;21.932;2024-02-15T09:20:46;112.50;100.75;60.00
86021;PMS7003;76597;42.990;21.932;2024-02-15T09:23:14;100.75;79.75;48.50
86021;PMS7003;76597;42.990;21.932;2024-02-15T09:25:42;105.25;78.25;48.25
86021;PMS7003;76597;42.990;21.932;2024-02-15T09:28:09;98.50;75.75;45.75
86021;PMS7003;76597;42.990;21.932;2024-02-15T09:30:34;98.25;75.50;47.00
86021;PMS7003;76597;42.990;21.932;2024-02-15T09:33:00;86.25;64.50;42.75
86021;PMS7003;76597;42.990;21.932;2024-02-15T09:35:30;73.25;56.75;37.25
86021;PMS7003;76597;42.990;21.932;2024-02-15T09:37:56;51.00;43.00;27.25
86021;PMS7003;76597;42.990;21.932;2024-02-15T09:40:22;65.00;54.50;32.75
86021;PMS7003;76597;42.990;21.932;2024-02-15T09:42:51;69.50;54.25;34.25
86021;PMS7003;76597;42.990;21.932;2024-02-15T09:45:17;68.25;50.75;30.50
86021;PMS7003;76597;42.990;21.932;2024-02-15T09:47:44;35.00;33.75;20.00
86021;PMS7003;76597;42.990;21.932;2024-02-15T09:50:16;50.50;40.25;24.25
86021;PMS7003;76597;42.990;21.932;2024-02-15T09:52:49;52.50;43.50;28.00
86021;PMS7003;76597;42.990;21.932;2024-02-15T09:55:17;46.00;37.75;26.00
86021;PMS7003;76597;42.990;21.932;2024-02-15T09:57:44;39.00;31.50;18.00
86021;PMS7003;76597;42.990;21.932;2024-02-15T10:00:13;46.50;40.25;25.75
86021;PMS7003;76597;42.990;21.932;2024-02-15T10:02:40;62.50;49.25;30.25
86021;PMS7003;76597;42.990;21.932;2024-02-15T10:05:09;53.00;45.50;29.25
86021;PMS7003;76597;42.990;21.932;2024-02-15T10:07:39;48.50;43.00;29.25
86021;PMS7003;76597;42.990;21.932;2024-02-15T10:12:41;56.75;42.50;26.25
86021;PMS7003;76597;42.990;21.932;2024-02-15T10:15:08;53.75;43.50;27.00
86021;PMS7003;76597;42.990;21.932;2024-02-15T10:17:34;53.50;43.75;27.75
86021;PMS7003;76597;42.990;21.932;2024-02-15T10:20:04;49.50;42.00;25.75
86021;PMS7003;76597;42.990;21.932;2024-02-15T10:22:31;48.75;38.75;23.25
86021;PMS7003;76597;42.990;21.932;2024-02-15T10:25:18;48.00;42.25;27.00
86021;PMS7003;76597;42.990;21.932;2024-02-15T10:27:43;63.00;48.00;28.25
86021;PMS7003;76597;42.990;21.932;2024-02-15T10:30:17;48.25;41.75;26.00
86021;PMS7003;76597;42.990;21.932;2024-02-15T10:32:44;55.75;43.50;29.00
86021;PMS7003;76597;42.990;21.932;2024-02-15T10:35:12;58.50;46.25;30.00
86021;PMS7003;76597;42.990;21.932;2024-02-15T10:37:44;47.75;41.00;27.00
86021;PMS7003;76597;42.990;21.932;2024-02-15T10:40:10;59.00;45.00;28.00
86021;PMS7003;76597;42.990;21.932;2024-02-15T10:42:38;62.25;46.50;29.00
86021;PMS7003;76597;42.990;21.932;2024-02-15T10:45:06;43.50;39.50;26.50
86021;PMS7003;76597;42.990;21.932;2024-02-15T10:47:36;70.75;56.25;37.50
86021;PMS7003;76597;42.990;21.932;2024-02-15T10:50:04;66.25;51.75;33.50
86021;PMS7003;76597;42.990;21.932;2024-02-15T10:52:31;52.25;41.00;27.25
86021;PMS7003;76597;42.990;21.932;2024-02-15T10:55:04;49.75;40.25;27.75
86021;PMS7003;76597;42.990;21.932;2024-02-15T10:57:34;51.75;43.75;28.00
86021;PMS7003;76597;42.990;21.932;2024-02-15T11:00:04;47.25;34.50;23.75
86021;PMS7003;76597;42.990;21.932;2024-02-15T11:02:42;74.25;60.00;38.00
86021;PMS7003;76597;42.990;21.932;2024-02-15T11:05:10;57.00;43.00;25.00
86021;PMS7003;76597;42.990;21.932;2024-02-15T11:07:39;51.25;41.00;25.50
86021;PMS7003;76597;42.990;21.932;2024-02-15T11:10:08;61.75;48.25;31.25
86021;PMS7003;76597;42.990;21.932;2024-02-15T11:12:36;48.50;40.25;25.50
86021;PMS7003;76597;42.990;21.932;2024-02-15T11:15:03;77.50;62.00;39.50
86021;PMS7003;76597;42.990;21.932;2024-02-15T11:20:10;29.50;25.50;19.50
86021;PMS7003;76597;42.990;21.932;2024-02-15T11:22:59;56.25;47.00;28.25
86021;PMS7003;76597;42.990;21.932;2024-02-15T11:25:34;47.75;36.00;23.25
86021;PMS7003;76597;42.990;21.932;2024-02-15T11:30:49;38.25;31.00;18.00
86021;PMS7003;76597;42.990;21.932;2024-02-15T11:38:35;42.50;35.25;20.75
86021;PMS7003;76597;42.990;21.932;2024-02-15T11:41:01;29.50;27.00;16.00
86021;PMS7003;76597;42.990;21.932;2024-02-15T11:46:19;40.75;37.00;26.00
86021;PMS7003;76597;42.990;21.932;2024-02-15T11:48:46;35.25;25.00;17.25
86021;PMS7003;76597;42.990;21.932;2024-02-15T11:51:25;36.25;32.00;17.75
86021;PMS7003;76597;42.990;21.932;2024-02-15T11:54:04;47.00;34.25;21.25
86021;PMS7003;76597;42.990;21.932;2024-02-15T11:59:13;51.75;44.25;28.25
86021;PMS7003;76597;42.990;21.932;2024-02-15T12:01:58;38.25;31.50;19.25
86021;PMS7003;76597;42.990;21.932;2024-02-15T12:04:43;122.50;113.50;75.75
86021;PMS7003;76597;42.990;21.932;2024-02-15T12:07:38;41.25;33.75;21.50
86021;PMS7003;76597;42.990;21.932;2024-02-15T12:10:23;31.50;31.00;21.25
86021;PMS7003;76597;42.990;21.932;2024-02-15T12:13:07;42.25;36.25;22.50
86021;PMS7003;76597;42.990;21.932;2024-02-15T12:16:00;36.25;28.75;20.00
86021;PMS7003;76597;42.990;21.932;2024-02-15T12:18:45;33.25;30.00;18.50
86021;PMS7003;76597;42.990;21.932;2024-02-15T12:21:23;48.50;39.75;27.50
86021;PMS7003;76597;42.990;21.932;2024-02-15T12:23:50;53.00;42.75;26.50
86021;PMS7003;76597;42.990;21.932;2024-02-15T12:26:20;50.75;41.00;26.75
86021;PMS7003;76597;42.990;21.932;2024-02-15T12:28:51;45.50;41.25;28.00
86021;PMS7003;76597;42.990;21.932;2024-02-15T12:31:20;48.25;38.75;24.75
86021;PMS7003;76597;42.990;21.932;2024-02-15T12:33:46;42.00;31.50;19.25
86021;PMS7003;76597;42.990;21.932;2024-02-15T12:36:13;35.75;27.00;18.00
86021;PMS7003;76597;42.990;21.932;2024-02-15T12:38:39;47.25;34.50;19.75
86021;PMS7003;76597;42.990;21.932;2024-02-15T12:41:19;52.25;42.75;26.75
86021;PMS7003;76597;42.990;21.932;2024-02-15T12:43:45;37.50;37.00;21.50
86021;PMS7003;76597;42.990;21.932;2024-02-15T12:46:11;37.75;35.00;23.00
86021;PMS7003;76597;42.990;21.932;2024-02-15T12:48:37;48.00;38.75;24.75
86021;PMS7003;76597;42.990;21.932;2024-02-15T12:51:15;37.25;33.75;21.75
86021;PMS7003;76597;42.990;21.932;2024-02-15T12:53:41;38.50;34.50;24.25
86021;PMS7003;76597;42.990;21.932;2024-02-15T12:56:07;54.25;43.50;29.25
86021;PMS7003;76597;42.990;21.932;2024-02-15T12:58:34;42.75;37.00;21.25
86021;PMS7003;76597;42.990;21.932;2024-02-15T13:01:00;53.50;41.25;26.00
86021;PMS7003;76597;42.990;21.932;2024-02-15T13:03:26;35.75;34.50;22.00
86021;PMS7003;76597;42.990;21.932;2024-02-15T13:05:52;37.50;34.50;22.25
86021;PMS7003;76597;42.990;21.932;2024-02-15T13:08:18;34.75;34.25;22.50
86021;PMS7003;76597;42.990;21.932;2024-02-15T13:10:45;45.75;35.00;22.25
86021;PMS7003;76597;42.990;21.932;2024-02-15T13:13:11;49.25;37.50;23.50
86021;PMS7003;76597;42.990;21.932;2024-02-15T13:15:39;51.00;41.50;29.75
86021;PMS7003;76597;42.990;21.932;2024-02-15T13:18:05;35.25;27.00;18.75
86021;PMS7003;76597;42.990;21.932;2024-02-15T13:20:31;34.50;30.25;20.25
86021;PMS7003;76597;42.990;21.932;2024-02-15T13:23:04;49.75;42.50;27.00
86021;PMS7003;76597;42.990;21.932;2024-02-15T13:25:37;39.25;35.00;23.25
86021;PMS7003;76597;42.990;21.932;2024-02-15T13:28:04;37.75;33.00;21.00
86021;PMS7003;76597;42.990;21.932;2024-02-15T13:30:31;32.50;27.00;20.75
86021;PMS7003;76597;42.990;21.932;2024-02-15T13:32:57;34.50;31.50;20.00
86021;PMS7003;76597;42.990;21.932;2024-02-15T13:35:22;29.75;28.00;17.75
86021;PMS7003;76597;42.990;21.932;2024-02-15T13:40:14;37.25;31.75;20.00
86021;PMS7003;76597;42.990;21.932;2024-02-15T13:42:41;49.50;42.00;27.25
86021;PMS7003;76597;42.990;21.932;2024-02-15T13:46:00;39.00;36.25;24.25
86021;PMS7003;76597;42.990;21.932;2024-02-15T13:48:06;40.00;34.00;21.00
86021;PMS7003;76597;42.990;21.932;2024-02-15T13:50:33;45.00;39.00;25.25
86021;PMS7003;76597;42.990;21.932;2024-02-15T13:52:59;25.50;23.75;16.00